Time;durP1;ratioP1;P1;durP2;ratioP2;P2;SDS_P1;SDS_P2;PMS_P1;PMS_P2;Temp;Humidity;BMP_temperature;BMP_pressure;BME280_temperature;BME280_humidity;BME280_pressure;Samples;Min_cycle;Max_cycle;Signal;HPM_P1;HPM_P2
2021/12/09 00:02:19;;;;;;;4.13;1.25;;;;;;;;;;5107938;27;20556;-50
2021/12/09 00:04:45;;;;;;;2.97;1.05;;;;;;;;;;5106868;27;20543;-49
2021/12/09 00:07:10;;;;;;;1.35;0.57;;;;;;;;;;5107819;27;20038;-51
2021/12/09 00:09:36;;;;;;;6.78;1.65;;;;;;;;;;5109060;27;20033;-48
2021/12/09 00:12:01;;;;;;;1.15;0.32;;;;;;;;;;5088517;27;20110;-50
2021/12/09 00:14:28;;;;;;;4.28;1.55;;;;;;;;;;5094209;28;20023;-51
2021/12/09 00:16:56;;;;;;;1.40;0.40;;;;;;;;;;5109684;27;20019;-51
2021/12/09 00:19:23;;;;;;;0.38;0.20;;;;;;;;;;5094472;27;20043;-51
2021/12/09 00:21:48;;;;;;;5.60;1.42;;;;;;;;;;5109821;27;20134;-52
2021/12/09 00:24:14;;;;;;;6.90;1.73;;;;;;;;;;5107383;27;20030;-52
2021/12/09 00:26:40;;;;;;;3.45;1.02;;;;;;;;;;5109747;27;20023;-51
2021/12/09 00:29:08;;;;;;;3.70;1.05;;;;;;;;;;5105255;27;20098;-45
2021/12/09 00:31:36;;;;;;;3.30;1.10;;;;;;;;;;5112153;27;20035;-49
2021/12/09 00:34:05;;;;;;;2.03;0.75;;;;;;;;;;5106379;27;20137;-50
2021/12/09 00:36:37;;;;;;;13.65;1.60;;;;;;;;;;5107336;27;20015;-46
2021/12/09 00:39:04;;;;;;;2.67;0.98;;;;;;;;;;5109096;28;20399;-51
2021/12/09 00:41:30;;;;;;;6.10;0.77;;;;;;;;;;5094987;28;20081;-52
2021/12/09 00:43:55;;;;;;;4.47;1.13;;;;;;;;;;5112413;28;20035;-45
2021/12/09 00:46:20;;;;;;;4.10;0.85;;;;;;;;;;5109510;27;20031;-47
2021/12/09 00:48:46;;;;;;;5.93;1.77;;;;;;;;;;5108214;28;20036;-49
2021/12/09 00:51:14;;;;;;;2.13;1.30;;;;;;;;;;5108260;28;20026;-52
2021/12/09 00:53:39;;;;;;;8.80;2.10;;;;;;;;;;5107830;28;20020;-50
2021/12/09 00:56:06;;;;;;;15.57;1.90;;;;;;;;;;5107240;28;20022;-48
2021/12/09 00:58:31;;;;;;;12.05;2.90;;;;;;;;;;5109496;28;20016;-49
2021/12/09 01:00:56;;;;;;;3.85;1.40;;;;;;;;;;5108010;28;20034;-49
2021/12/09 01:03:23;;;;;;;6.50;1.60;;;;;;;;;;5113039;28;20548;-46
2021/12/09 01:05:49;;;;;;;10.00;2.30;;;;;;;;;;5111319;28;20833;-48
2021/12/09 01:08:15;;;;;;;7.90;2.55;;;;;;;;;;5093223;28;20062;-51
2021/12/09 01:10:41;;;;;;;2.17;0.57;;;;;;;;;;5113528;28;20019;-50
2021/12/09 01:13:06;;;;;;;5.15;1.05;;;;;;;;;;5109109;28;20016;-51
2021/12/09 01:15:35;;;;;;;3.20;0.85;;;;;;;;;;5112437;27;20635;-52
2021/12/09 01:18:00;;;;;;;7.15;1.20;;;;;;;;;;5097898;27;20510;-48
2021/12/09 01:20:26;;;;;;;9.68;1.27;;;;;;;;;;5113168;27;20035;-48
2021/12/09 01:22:53;;;;;;;4.40;2.15;;;;;;;;;;5109036;27;20683;-51
2021/12/09 01:25:20;;;;;;;4.72;1.33;;;;;;;;;;5094351;28;20080;-52
2021/12/09 01:27:47;;;;;;;9.77;1.95;;;;;;;;;;5115959;27;20027;-47
2021/12/09 01:30:16;;;;;;;2.78;1.13;;;;;;;;;;5110081;27;20027;-50
2021/12/09 01:32:48;;;;;;;12.18;1.13;;;;;;;;;;5115131;27;20011;-45
2021/12/09 01:35:14;;;;;;;18.35;4.25;;;;;;;;;;5115545;27;20038;-47
2021/12/09 01:37:39;;;;;;;4.45;1.05;;;;;;;;;;5114903;27;20080;-47
2021/12/09 01:40:07;;;;;;;3.90;1.30;;;;;;;;;;5120549;27;20016;-46
2021/12/09 01:42:32;;;;;;;11.30;2.53;;;;;;;;;;5124786;27;20015;-46
2021/12/09 01:44:57;;;;;;;15.35;4.40;;;;;;;;;;5118637;27;20026;-46
2021/12/09 01:47:23;;;;;;;5.97;1.95;;;;;;;;;;5117636;27;20020;-48
2021/12/09 01:49:49;;;;;;;10.65;1.48;;;;;;;;;;5119858;27;20586;-50
2021/12/09 01:52:14;;;;;;;7.45;1.67;;;;;;;;;;5120612;27;20019;-48
2021/12/09 01:54:39;;;;;;;10.70;3.65;;;;;;;;;;5117433;27;20455;-45
2021/12/09 01:57:06;;;;;;;6.60;2.35;;;;;;;;;;5122597;27;20030;-47
2021/12/09 01:59:31;;;;;;;2.70;1.13;;;;;;;;;;5123394;27;20018;-47
2021/12/09 02:01:56;;;;;;;3.85;0.80;;;;;;;;;;5114732;27;20035;-46
2021/12/09 02:04:22;;;;;;;3.10;1.02;;;;;;;;;;5116437;27;20024;-49
2021/12/09 02:06:47;;;;;;;15.50;2.72;;;;;;;;;;5116469;27;20617;-50
2021/12/09 02:09:14;;;;;;;8.23;1.42;;;;;;;;;;5118861;27;20099;-49
2021/12/09 02:11:40;;;;;;;13.07;1.55;;;;;;;;;;5117838;27;20019;-49
2021/12/09 02:14:06;;;;;;;3.22;1.35;;;;;;;;;;5113995;27;20091;-50
2021/12/09 02:16:32;;;;;;;2.35;1.20;;;;;;;;;;5118794;27;20106;-48
2021/12/09 02:18:57;;;;;;;8.60;1.52;;;;;;;;;;5115656;27;20510;-44
2021/12/09 02:21:30;;;;;;;3.58;1.25;;;;;;;;;;5115253;27;20116;-48
2021/12/09 02:23:59;;;;;;;12.73;3.47;;;;;;;;;;5121087;27;20102;-47
2021/12/09 02:26:27;;;;;;;7.68;2.10;;;;;;;;;;5116955;27;20275;-44
2021/12/09 02:28:53;;;;;;;8.25;1.50;;;;;;;;;;5116506;27;20007;-47
2021/12/09 02:31:20;;;;;;;6.57;1.38;;;;;;;;;;5115027;27;20019;-48
2021/12/09 02:33:45;;;;;;;3.22;1.75;;;;;;;;;;5115689;27;20372;-47
2021/12/09 02:36:10;;;;;;;13.25;1.55;;;;;;;;;;5115932;27;20030;-45
2021/12/09 02:38:43;;;;;;;8.25;2.67;;;;;;;;;;5117184;27;20016;-46
2021/12/09 02:41:10;;;;;;;10.65;2.35;;;;;;;;;;5116377;27;20023;-51
2021/12/09 02:43:36;;;;;;;3.50;0.85;;;;;;;;;;5120057;27;20437;-44
2021/12/09 02:46:01;;;;;;;5.90;2.30;;;;;;;;;;5116594;27;20023;-46
2021/12/09 02:48:27;;;;;;;5.55;1.08;;;;;;;;;;5114430;27;20471;-50
2021/12/09 02:50:52;;;;;;;15.52;1.80;;;;;;;;;;5116239;27;20027;-48
2021/12/09 02:53:18;;;;;;;2.63;1.67;;;;;;;;;;5117364;27;20015;-46
2021/12/09 02:55:44;;;;;;;2.13;0.30;;;;;;;;;;5120717;27;20024;-47
2021/12/09 02:58:09;;;;;;;5.22;2.47;;;;;;;;;;5114207;27;20489;-45
2021/12/09 03:00:49;;;;;;;13.75;2.53;;;;;;;;;;5115509;27;20480;-46
2021/12/09 03:03:14;;;;;;;10.18;3.00;;;;;;;;;;5115093;27;20035;-47
2021/12/09 03:05:40;;;;;;;9.10;3.17;;;;;;;;;;5117838;27;20072;-50
2021/12/09 03:08:08;;;;;;;2.58;1.27;;;;;;;;;;5119658;27;20027;-47
2021/12/09 03:10:34;;;;;;;15.98;1.85;;;;;;;;;;5116199;27;20020;-47
2021/12/09 03:13:01;;;;;;;11.65;2.50;;;;;;;;;;5112931;27;20081;-47
2021/12/09 03:15:26;;;;;;;6.57;1.10;;;;;;;;;;5113471;27;20578;-46
2021/12/09 03:17:52;;;;;;;8.50;2.33;;;;;;;;;;5116022;27;20015;-45
2021/12/09 03:20:18;;;;;;;12.88;2.58;;;;;;;;;;5118199;27;20064;-44
2021/12/09 03:22:45;;;;;;;16.60;1.92;;;;;;;;;;5120437;27;20019;-46
2021/12/09 03:25:11;;;;;;;4.68;2.03;;;;;;;;;;5111714;27;20015;-46
2021/12/09 03:27:36;;;;;;;3.03;2.05;;;;;;;;;;5114801;27;20031;-48
2021/12/09 03:30:04;;;;;;;6.10;1.02;;;;;;;;;;5113758;27;20020;-47
2021/12/09 03:32:30;;;;;;;6.95;2.55;;;;;;;;;;5121002;27;20042;-47
2021/12/09 03:34:55;;;;;;;15.50;2.80;;;;;;;;;;5115669;27;20110;-48
2021/12/09 03:37:22;;;;;;;9.55;2.60;;;;;;;;;;5117851;27;20596;-45
2021/12/09 03:39:48;;;;;;;8.90;3.33;;;;;;;;;;5111637;27;20023;-46
2021/12/09 03:42:15;;;;;;;6.35;2.17;;;;;;;;;;5117843;27;20023;-44
2021/12/09 03:44:40;;;;;;;7.03;3.28;;;;;;;;;;5117927;27;20024;-47
2021/12/09 03:47:08;;;;;;;9.18;2.92;;;;;;;;;;5114258;27;20620;-46
2021/12/09 03:49:33;;;;;;;5.43;1.90;;;;;;;;;;5117019;27;20024;-46
2021/12/09 03:51:59;;;;;;;3.17;1.13;;;;;;;;;;5119429;27;20045;-45
2021/12/09 03:54:24;;;;;;;5.32;1.15;;;;;;;;;;5117211;27;20020;-49
2021/12/09 03:56:50;;;;;;;5.22;1.83;;;;;;;;;;5098292;27;20494;-44
2021/12/09 03:59:15;;;;;;;7.47;1.83;;;;;;;;;;5116988;27;20027;-47
2021/12/09 04:01:42;;;;;;;3.28;1.25;;;;;;;;;;5110055;27;20019;-46
2021/12/09 04:04:08;;;;;;;6.88;1.95;;;;;;;;;;5100143;27;20020;-46
2021/12/09 04:06:34;;;;;;;3.60;1.55;;;;;;;;;;5119712;27;20197;-49
2021/12/09 04:09:00;;;;;;;12.98;3.00;;;;;;;;;;5117101;27;20026;-46
2021/12/09 04:11:26;;;;;;;3.85;1.77;;;;;;;;;;5119942;27;20167;-45
2021/12/09 04:13:51;;;;;;;9.88;1.45;;;;;;;;;;5117521;27;20476;-45
2021/12/09 04:16:17;;;;;;;7.82;1.83;;;;;;;;;;5114226;27;20336;-47
2021/12/09 04:18:44;;;;;;;5.05;2.15;;;;;;;;;;5115612;27;20056;-46
2021/12/09 04:21:09;;;;;;;8.30;2.83;;;;;;;;;;5120627;27;20064;-47
2021/12/09 04:23:35;;;;;;;12.15;4.10;;;;;;;;;;5112718;27;20103;-44
2021/12/09 04:26:00;;;;;;;2.88;1.20;;;;;;;;;;5118143;27;20689;-44
2021/12/09 04:28:26;;;;;;;15.75;3.53;;;;;;;;;;5115338;27;20494;-44
2021/12/09 04:30:52;;;;;;;9.00;1.52;;;;;;;;;;5113976;27;20020;-46
2021/12/09 04:33:17;;;;;;;11.75;4.03;;;;;;;;;;5117248;27;20040;-47
2021/12/09 04:35:43;;;;;;;6.30;2.35;;;;;;;;;;5119773;27;20023;-46
2021/12/09 04:38:08;;;;;;;14.48;2.45;;;;;;;;;;5118197;27;20031;-45
2021/12/09 04:40:33;;;;;;;1.77;0.50;;;;;;;;;;5113890;27;20032;-44
2021/12/09 04:43:00;;;;;;;4.57;1.90;;;;;;;;;;5116260;28;20468;-46
2021/12/09 04:45:26;;;;;;;12.75;3.20;;;;;;;;;;5117921;28;20027;-49
2021/12/09 04:47:51;;;;;;;9.18;2.45;;;;;;;;;;5113247;28;20178;-48
2021/12/09 04:50:17;;;;;;;4.28;1.90;;;;;;;;;;5117585;27;20470;-47
2021/12/09 04:52:42;;;;;;;7.15;2.25;;;;;;;;;;5120058;27;20030;-47
2021/12/09 04:55:09;;;;;;;7.10;2.22;;;;;;;;;;5102232;27;20019;-49
2021/12/09 04:57:35;;;;;;;11.90;4.72;;;;;;;;;;5119668;27;20051;-45
2021/12/09 05:00:00;;;;;;;9.82;2.08;;;;;;;;;;5120810;27;20050;-48
2021/12/09 05:02:41;;;;;;;3.92;1.05;;;;;;;;;;5117662;27;20031;-48
2021/12/09 05:05:07;;;;;;;6.50;1.80;;;;;;;;;;5118425;27;20042;-48
2021/12/09 05:07:32;;;;;;;12.30;4.40;;;;;;;;;;5122931;27;20063;-46
2021/12/09 05:09:58;;;;;;;6.53;0.75;;;;;;;;;;5120149;27;20007;-45
2021/12/09 05:12:23;;;;;;;5.10;2.03;;;;;;;;;;5119868;27;20039;-44
2021/12/09 05:14:48;;;;;;;13.70;2.65;;;;;;;;;;5121804;27;20017;-47
2021/12/09 05:17:15;;;;;;;16.45;4.40;;;;;;;;;;5121425;27;20024;-47
2021/12/09 05:19:41;;;;;;;13.00;3.22;;;;;;;;;;5116284;27;20048;-46
2021/12/09 05:22:06;;;;;;;18.88;3.63;;;;;;;;;;5122574;27;20080;-45
2021/12/09 05:24:34;;;;;;;9.18;1.85;;;;;;;;;;5118528;27;20011;-46
2021/12/09 05:26:59;;;;;;;14.02;2.35;;;;;;;;;;5115507;27;20019;-47
2021/12/09 05:29:30;;;;;;;5.03;1.58;;;;;;;;;;5122409;27;20019;-48
2021/12/09 05:32:08;;;;;;;12.98;3.22;;;;;;;;;;5120080;27;20027;-47
2021/12/09 05:34:38;;;;;;;5.40;3.03;;;;;;;;;;5121132;27;20027;-47
2021/12/09 05:37:05;;;;;;;8.40;2.05;;;;;;;;;;5118889;27;20053;-47
2021/12/09 05:39:30;;;;;;;5.70;1.52;;;;;;;;;;5117333;27;20085;-47
2021/12/09 05:41:56;;;;;;;2.40;1.75;;;;;;;;;;5121834;27;20027;-44
2021/12/09 05:44:21;;;;;;;8.40;7.70;;;;;;;;;;5119488;27;20053;-43
2021/12/09 05:46:47;;;;;;;11.27;2.47;;;;;;;;;;5122584;27;20020;-41
2021/12/09 05:49:13;;;;;;;4.70;0.90;;;;;;;;;;5121890;27;20019;-44
2021/12/09 05:51:40;;;;;;;12.23;2.72;;;;;;;;;;5122115;27;20015;-43
2021/12/09 05:54:05;;;;;;;6.47;2.78;;;;;;;;;;5116845;27;20161;-46
2021/12/09 05:56:30;;;;;;;3.88;2.10;;;;;;;;;;5118170;27;20094;-48
2021/12/09 05:58:56;;;;;;;3.30;1.00;;;;;;;;;;5120875;27;20023;-46
2021/12/09 06:01:22;;;;;;;13.93;2.10;;;;;;;;;;5120030;27;20384;-43
2021/12/09 06:03:49;;;;;;;9.88;1.70;;;;;;;;;;5118171;27;20050;-45
2021/12/09 06:06:15;;;;;;;10.30;2.38;;;;;;;;;;5118494;27;20023;-43
2021/12/09 06:08:40;;;;;;;3.55;2.22;;;;;;;;;;5118482;27;20022;-41
2021/12/09 06:11:07;;;;;;;4.22;2.22;;;;;;;;;;5117561;27;20034;-47
2021/12/09 06:13:36;;;;;;;15.95;3.42;;;;;;;;;;5118450;27;20019;-46
2021/12/09 06:16:02;;;;;;;7.57;1.83;;;;;;;;;;5118807;27;20068;-44
2021/12/09 06:18:27;;;;;;;4.32;2.15;;;;;;;;;;5117619;27;20078;-41
2021/12/09 06:20:52;;;;;;;3.00;1.92;;;;;;;;;;5118894;27;20054;-40
2021/12/09 06:23:18;;;;;;;12.32;3.60;;;;;;;;;;5119909;27;20480;-40
2021/12/09 06:25:43;;;;;;;6.20;1.33;;;;;;;;;;5117817;27;20111;-40
2021/12/09 06:28:09;;;;;;;1.67;0.63;;;;;;;;;;5114737;27;20054;-41
2021/12/09 06:30:34;;;;;;;5.85;1.88;;;;;;;;;;5118443;27;20061;-39
2021/12/09 06:33:00;;;;;;;5.03;3.00;;;;;;;;;;5117162;27;20090;-45
2021/12/09 06:35:28;;;;;;;4.65;1.75;;;;;;;;;;5117976;27;20381;-46
2021/12/09 06:37:54;;;;;;;3.72;1.30;;;;;;;;;;5116203;27;20107;-42
2021/12/09 06:40:21;;;;;;;6.88;2.28;;;;;;;;;;5119648;27;20027;-41
2021/12/09 06:42:47;;;;;;;5.78;2.42;;;;;;;;;;5117400;27;20019;-42
2021/12/09 06:45:12;;;;;;;13.05;3.15;;;;;;;;;;5120771;27;20030;-44
2021/12/09 06:47:39;;;;;;;7.57;2.85;;;;;;;;;;5117117;27;20541;-47
2021/12/09 06:50:05;;;;;;;15.02;3.90;;;;;;;;;;5116881;27;20134;-44
2021/12/09 06:52:31;;;;;;;9.77;3.75;;;;;;;;;;5117752;27;20024;-44
2021/12/09 06:54:56;;;;;;;7.53;2.10;;;;;;;;;;5118652;27;20104;-42
2021/12/09 06:57:21;;;;;;;3.85;2.08;;;;;;;;;;5117433;27;20023;-43
2021/12/09 06:59:47;;;;;;;6.82;1.23;;;;;;;;;;5119016;27;20099;-42
2021/12/09 07:02:12;;;;;;;5.45;1.40;;;;;;;;;;5120525;27;20395;-41
2021/12/09 07:04:37;;;;;;;4.63;2.63;;;;;;;;;;5119221;27;20388;-44
2021/12/09 07:07:03;;;;;;;6.15;2.80;;;;;;;;;;5116703;27;20011;-44
2021/12/09 07:09:29;;;;;;;2.70;0.73;;;;;;;;;;5117738;27;20019;-46
2021/12/09 07:11:55;;;;;;;12.15;1.20;;;;;;;;;;5118847;27;20027;-43
2021/12/09 07:14:21;;;;;;;2.25;0.60;;;;;;;;;;5115112;27;20517;-42
2021/12/09 07:16:46;;;;;;;9.38;0.70;;;;;;;;;;5116276;27;20148;-46
2021/12/09 07:19:12;;;;;;;4.95;1.80;;;;;;;;;;5117312;27;20052;-45
2021/12/09 07:21:37;;;;;;;5.68;1.83;;;;;;;;;;5115132;27;20571;-43
2021/12/09 07:24:03;;;;;;;2.30;1.15;;;;;;;;;;5117081;27;20035;-41
2021/12/09 07:26:30;;;;;;;3.22;1.13;;;;;;;;;;5120479;27;20026;-41
2021/12/09 07:28:55;;;;;;;8.15;2.22;;;;;;;;;;5115141;27;20024;-45
2021/12/09 07:31:21;;;;;;;11.23;2.88;;;;;;;;;;5116269;27;20027;-47
2021/12/09 07:33:46;;;;;;;1.88;1.15;;;;;;;;;;5116965;27;20016;-41
2021/12/09 07:36:11;;;;;;;6.25;1.73;;;;;;;;;;5116891;27;20015;-41
2021/12/09 07:38:37;;;;;;;1.98;0.82;;;;;;;;;;5119083;27;20102;-44
2021/12/09 07:41:02;;;;;;;17.15;1.58;;;;;;;;;;5118614;27;20430;-43
2021/12/09 07:43:28;;;;;;;5.88;2.28;;;;;;;;;;5113706;27;20018;-43
2021/12/09 07:45:53;;;;;;;4.28;1.52;;;;;;;;;;5116596;27;20042;-41
2021/12/09 07:48:18;;;;;;;5.97;1.20;;;;;;;;;;5116834;27;20116;-41
2021/12/09 07:50:44;;;;;;;7.57;1.88;;;;;;;;;;5113958;27;20027;-41
2021/12/09 07:53:09;;;;;;;8.40;1.95;;;;;;;;;;5091548;27;20050;-42
2021/12/09 07:55:35;;;;;;;8.13;2.25;;;;;;;;;;5114650;27;20716;-46
2021/12/09 07:58:00;;;;;;;3.13;0.93;;;;;;;;;;5121131;27;20016;-42
2021/12/09 08:00:27;;;;;;;11.07;3.08;;;;;;;;;;5116936;27;20110;-49
2021/12/09 08:02:53;;;;;;;11.40;1.90;;;;;;;;;;5115028;27;20027;-46
2021/12/09 08:05:19;;;;;;;7.70;1.67;;;;;;;;;;5112630;27;20638;-46
2021/12/09 08:07:45;;;;;;;5.22;2.20;;;;;;;;;;5110472;27;20545;-46
2021/12/09 08:10:12;;;;;;;10.85;2.40;;;;;;;;;;5114309;27;20021;-49
2021/12/09 08:12:38;;;;;;;18.30;3.58;;;;;;;;;;5109131;27;20772;-44
2021/12/09 08:15:06;;;;;;;8.30;2.63;;;;;;;;;;5108006;27;20080;-43
2021/12/09 08:20:21;;;;;;;3.83;1.80;;;;;;;;;;5073255;28;20051;-46
2021/12/09 08:22:47;;;;;;;18.35;3.53;;;;;;;;;;5073118;28;20020;-45
2021/12/09 08:25:16;;;;;;;18.90;3.28;;;;;;;;;;5069525;28;20025;-46
2021/12/09 08:27:43;;;;;;;11.27;2.85;;;;;;;;;;5071993;28;20533;-48
2021/12/09 08:30:10;;;;;;;9.75;1.80;;;;;;;;;;5075806;28;20020;-47
2021/12/09 08:32:35;;;;;;;11.30;2.63;;;;;;;;;;5072827;28;20323;-46
2021/12/09 08:35:04;;;;;;;8.27;2.30;;;;;;;;;;5072264;28;20460;-46
2021/12/09 08:37:30;;;;;;;8.45;2.72;;;;;;;;;;5072613;28;20020;-45
2021/12/09 08:39:55;;;;;;;5.70;1.70;;;;;;;;;;5071453;28;20021;-45
2021/12/09 08:42:27;;;;;;;10.50;2.15;;;;;;;;;;5073902;28;20035;-45
2021/12/09 08:45:09;;;;;;;6.45;1.20;;;;;;;;;;5076059;28;20024;-42
2021/12/09 08:47:35;;;;;;;10.10;1.77;;;;;;;;;;5071324;28;20033;-43
2021/12/09 08:50:01;;;;;;;9.45;2.22;;;;;;;;;;5071574;28;20085;-51
2021/12/09 08:52:36;;;;;;;3.25;0.98;;;;;;;;;;5076867;28;20326;-44
2021/12/09 08:55:02;;;;;;;8.68;1.38;;;;;;;;;;5076145;28;20020;-42
2021/12/09 08:57:27;;;;;;;3.85;0.60;;;;;;;;;;5072899;28;20012;-45
2021/12/09 09:00:04;;;;;;;6.18;2.22;;;;;;;;;;5073905;28;20087;-48
2021/12/09 09:02:29;;;;;;;3.75;2.30;;;;;;;;;;5070637;28;20567;-44
2021/12/09 09:04:55;;;;;;;10.88;2.38;;;;;;;;;;5071097;28;20734;-44
2021/12/09 09:07:21;;;;;;;11.30;2.85;;;;;;;;;;5069308;28;20028;-45
2021/12/09 09:09:49;;;;;;;2.13;1.17;;;;;;;;;;5073468;28;20070;-46
2021/12/09 09:12:16;;;;;;;17.20;2.05;;;;;;;;;;5070764;28;20032;-44
2021/12/09 09:14:53;;;;;;;5.60;2.22;;;;;;;;;;5071286;28;20032;-44
2021/12/09 09:17:28;;;;;;;6.68;1.60;;;;;;;;;;5074699;28;20021;-44
2021/12/09 09:19:53;;;;;;;4.65;1.60;;;;;;;;;;5096142;28;20051;-43
2021/12/09 09:22:19;;;;;;;3.45;1.50;;;;;;;;;;5092133;28;20024;-45
2021/12/09 09:24:44;;;;;;;4.88;1.92;;;;;;;;;;5092515;28;20027;-45
2021/12/09 09:27:09;;;;;;;9.18;1.48;;;;;;;;;;5098700;28;20440;-45
2021/12/09 09:29:37;;;;;;;3.78;1.42;;;;;;;;;;5095136;28;20027;-41
2021/12/09 09:32:04;;;;;;;4.82;2.42;;;;;;;;;;5096074;28;20080;-43
2021/12/09 09:34:29;;;;;;;12.27;3.53;;;;;;;;;;5094261;28;20600;-42
2021/12/09 09:36:55;;;;;;;11.65;2.88;;;;;;;;;;5095217;28;20031;-48
2021/12/09 09:39:22;;;;;;;4.07;2.42;;;;;;;;;;5089719;28;20694;-44
2021/12/09 09:41:56;;;;;;;41.20;3.20;;;;;;;;;;5093051;27;20110;-43
2021/12/09 09:44:34;;;;;;;8.73;3.05;;;;;;;;;;5094256;27;20035;-43
2021/12/09 09:47:00;;;;;;;6.18;3.50;;;;;;;;;;5097548;28;20028;-48
2021/12/09 09:49:26;;;;;;;8.38;3.63;;;;;;;;;;5096422;28;20075;-46
2021/12/09 09:51:52;;;;;;;11.43;3.25;;;;;;;;;;5095864;28;20043;-49
2021/12/09 09:54:17;;;;;;;12.13;2.42;;;;;;;;;;5092510;28;20031;-47
2021/12/09 09:56:43;;;;;;;9.00;2.58;;;;;;;;;;5095778;28;20040;-45
2021/12/09 09:59:11;;;;;;;4.07;1.77;;;;;;;;;;5096384;28;20074;-48
2021/12/09 10:01:38;;;;;;;11.73;2.45;;;;;;;;;;5089124;28;20127;-42
2021/12/09 10:04:12;;;;;;;5.13;1.92;;;;;;;;;;5090982;28;20028;-44
2021/12/09 10:06:39;;;;;;;5.40;2.03;;;;;;;;;;5094349;28;20634;-45
2021/12/09 10:09:05;;;;;;;20.92;2.72;;;;;;;;;;5096642;28;20016;-44
2021/12/09 10:11:30;;;;;;;37.22;3.13;;;;;;;;;;5099143;28;20515;-43
2021/12/09 10:14:06;;;;;;;6.28;1.23;;;;;;;;;;5094948;28;20020;-43
2021/12/09 10:16:34;;;;;;;8.55;2.75;;;;;;;;;;5093029;28;20027;-42
2021/12/09 10:18:59;;;;;;;9.82;3.03;;;;;;;;;;5102933;27;20071;-44
2021/12/09 10:21:29;;;;;;;5.53;3.42;;;;;;;;;;5113008;27;20160;-44
2021/12/09 10:24:07;;;;;;;13.75;1.95;;;;;;;;;;5109653;27;20499;-46
2021/12/09 10:26:36;;;;;;;8.10;2.88;;;;;;;;;;5115165;27;20024;-42
2021/12/09 10:29:14;;;;;;;6.65;2.33;;;;;;;;;;5113104;27;20570;-44
2021/12/09 10:31:41;;;;;;;6.05;1.55;;;;;;;;;;5119245;27;20027;-46
2021/12/09 10:34:41;;;;;;;4.10;1.42;;;;;;;;;;5119586;27;20047;-45
2021/12/09 10:37:11;;;;;;;4.43;1.60;;;;;;;;;;5098477;27;20121;-42
2021/12/09 10:39:39;;;;;;;4.07;1.60;;;;;;;;;;5117650;27;20027;-43
2021/12/09 10:42:07;;;;;;;7.72;2.40;;;;;;;;;;5119626;27;20139;-47
2021/12/09 10:44:39;;;;;;;5.18;1.73;;;;;;;;;;5122076;27;20035;-44
2021/12/09 10:47:09;;;;;;;11.88;1.15;;;;;;;;;;5116927;27;20026;-47
2021/12/09 10:49:49;;;;;;;12.88;1.85;;;;;;;;;;5117803;27;20038;-45
2021/12/09 10:52:26;;;;;;;9.75;2.63;;;;;;;;;;5115955;27;20015;-45
2021/12/09 10:54:52;;;;;;;3.83;2.28;;;;;;;;;;5116975;27;20079;-44
2021/12/09 10:57:23;;;;;;;6.60;1.85;;;;;;;;;;5116672;27;20103;-41
2021/12/09 10:59:49;;;;;;;5.78;1.67;;;;;;;;;;5116183;27;20045;-46
2021/12/09 11:02:14;;;;;;;6.88;2.58;;;;;;;;;;5114885;27;20508;-46
2021/12/09 11:04:39;;;;;;;1.27;0.70;;;;;;;;;;5118281;27;20103;-42
2021/12/09 11:07:20;;;;;;;4.93;1.00;;;;;;;;;;5115654;27;20027;-45
2021/12/09 11:09:46;;;;;;;6.05;1.67;;;;;;;;;;5117504;27;20019;-42
2021/12/09 11:12:28;;;;;;;5.85;3.45;;;;;;;;;;5116309;27;20392;-42
2021/12/09 11:15:00;;;;;;;2.25;1.05;;;;;;;;;;5117092;27;20011;-44
2021/12/09 11:17:33;;;;;;;2.58;1.50;;;;;;;;;;5117933;27;20034;-45
2021/12/09 11:19:59;;;;;;;4.68;2.83;;;;;;;;;;5116998;27;20065;-41
2021/12/09 11:22:29;;;;;;;3.53;1.83;;;;;;;;;;5118260;27;20027;-42
2021/12/09 11:24:59;;;;;;;5.53;2.90;;;;;;;;;;5118232;27;20138;-41
2021/12/09 11:27:26;;;;;;;7.20;2.35;;;;;;;;;;5117398;27;20181;-43
2021/12/09 11:29:56;;;;;;;4.35;1.48;;;;;;;;;;5115107;27;20987;-43
2021/12/09 11:32:40;;;;;;;5.10;1.92;;;;;;;;;;5112558;27;20552;-41
2021/12/09 11:35:15;;;;;;;8.38;2.58;;;;;;;;;;5117455;27;20225;-43
2021/12/09 11:37:47;;;;;;;5.80;2.25;;;;;;;;;;5114710;27;20031;-42
2021/12/09 11:40:23;;;;;;;24.75;2.30;;;;;;;;;;5114246;27;20036;-46
2021/12/09 11:42:54;;;;;;;8.38;1.98;;;;;;;;;;5115816;27;20020;-42
2021/12/09 11:45:22;;;;;;;1.83;1.35;;;;;;;;;;5117202;27;20065;-44
2021/12/09 11:47:48;;;;;;;5.38;1.77;;;;;;;;;;5121408;27;20496;-43
2021/12/09 11:50:16;;;;;;;6.20;3.03;;;;;;;;;;5118390;27;20436;-40
2021/12/09 11:52:43;;;;;;;13.52;2.50;;;;;;;;;;5120126;27;20020;-41
2021/12/09 11:55:11;;;;;;;5.72;2.10;;;;;;;;;;5117100;27;20028;-41
2021/12/09 11:57:40;;;;;;;7.88;2.53;;;;;;;;;;5113646;27;20027;-40
2021/12/09 12:11:56;;;;;;;7.50;2.42;;;;;;;;;;5106958;27;20076;-43
2021/12/09 12:14:30;;;;;;;6.88;2.45;;;;;;;;;;5112200;27;20019;-43
2021/12/09 12:17:20;;;;;;;13.05;2.88;;;;;;;;;;5107134;27;20217;-41
2021/12/09 12:19:54;;;;;;;5.15;1.95;;;;;;;;;;5110916;27;20074;-41
2021/12/09 12:23:13;;;;;;;7.28;3.67;;;;;;;;;;5110663;27;20200;-43
2021/12/09 12:37:08;;;;;;;5.85;2.08;;;;;;;;;;5113829;27;20027;-40
2021/12/09 12:42:13;;;;;;;4.60;1.20;;;;;;;;;;5113811;27;20030;-45
2021/12/09 12:44:57;;;;;;;6.45;1.60;;;;;;;;;;5107668;28;20039;-44
2021/12/09 12:47:29;;;;;;;3.05;1.60;;;;;;;;;;5110238;28;20373;-41
2021/12/09 12:50:06;;;;;;;4.22;1.83;;;;;;;;;;5112770;28;20515;-42
2021/12/09 12:52:33;;;;;;;4.07;2.25;;;;;;;;;;5109617;28;20483;-40
2021/12/09 12:55:11;;;;;;;13.80;3.10;;;;;;;;;;5111003;28;20506;-42
2021/12/09 12:57:39;;;;;;;7.15;2.70;;;;;;;;;;5109943;28;20016;-40
2021/12/09 13:00:07;;;;;;;6.82;2.55;;;;;;;;;;5103784;28;20023;-42
2021/12/09 13:06:09;;;;;;;5.07;2.20;;;;;;;;;;5113534;28;20027;-43
2021/12/09 13:11:13;;;;;;;2.42;1.13;;;;;;;;;;5113039;27;20041;-40
2021/12/09 13:13:46;;;;;;;11.07;2.03;;;;;;;;;;5112599;27;20797;-44
2021/12/09 13:16:18;;;;;;;2.35;1.35;;;;;;;;;;5113946;27;20034;-45
2021/12/09 13:21:37;;;;;;;7.63;0.80;;;;;;;;;;5116570;27;20662;-39
2021/12/09 13:24:18;;;;;;;2.42;1.23;;;;;;;;;;5114082;27;20058;-40
2021/12/09 13:27:01;;;;;;;0.83;0.47;;;;;;;;;;5119166;27;20038;-41
2021/12/09 13:29:34;;;;;;;4.00;2.35;;;;;;;;;;5116082;27;20445;-40
2021/12/09 13:32:16;;;;;;;1.08;0.75;;;;;;;;;;5115389;27;20110;-47
2021/12/09 13:34:51;;;;;;;2.80;1.77;;;;;;;;;;5113103;27;20020;-44
2021/12/09 13:47:51;;;;;;;3.40;0.85;;;;;;;;;;5116761;27;20111;-45
2021/12/09 13:51:17;;;;;;;12.13;2.03;;;;;;;;;;5117939;27;20023;-41
2021/12/09 13:55:57;;;;;;;1.90;0.93;;;;;;;;;;5113904;27;20033;-42
2021/12/09 13:58:23;;;;;;;5.15;1.65;;;;;;;;;;5113307;27;20094;-44
2021/12/09 14:00:50;;;;;;;1.63;1.13;;;;;;;;;;5120666;27;20269;-40
2021/12/09 14:03:17;;;;;;;1.17;0.88;;;;;;;;;;5112708;27;20035;-39
2021/12/09 14:05:44;;;;;;;3.95;1.75;;;;;;;;;;5098265;27;20532;-39
2021/12/09 14:08:11;;;;;;;2.45;1.55;;;;;;;;;;5120813;27;20031;-40
2021/12/09 14:10:39;;;;;;;4.88;1.40;;;;;;;;;;5108510;27;20054;-39
2021/12/09 14:13:11;;;;;;;10.48;4.57;;;;;;;;;;5120349;27;20015;-43
2021/12/09 14:15:41;;;;;;;5.75;2.15;;;;;;;;;;5118081;27;20475;-40
2021/12/09 14:18:15;;;;;;;24.92;2.53;;;;;;;;;;5121704;27;20244;-41
2021/12/09 14:20:41;;;;;;;10.38;3.33;;;;;;;;;;5117479;27;20080;-43
2021/12/09 14:23:06;;;;;;;13.05;3.05;;;;;;;;;;5121140;27;20061;-42
2021/12/09 14:25:34;;;;;;;3.00;1.67;;;;;;;;;;5126981;27;20022;-39
2021/12/09 14:28:00;;;;;;;7.00;1.02;;;;;;;;;;5116163;27;20094;-41
2021/12/09 14:30:27;;;;;;;10.75;1.92;;;;;;;;;;5120562;27;20082;-47
2021/12/09 14:32:54;;;;;;;5.25;1.55;;;;;;;;;;5119614;27;20016;-40
2021/12/09 14:35:20;;;;;;;3.75;2.40;;;;;;;;;;5123283;27;20019;-40
2021/12/09 14:37:48;;;;;;;4.57;1.20;;;;;;;;;;5122821;27;20535;-43
2021/12/09 14:40:15;;;;;;;2.63;1.30;;;;;;;;;;5123746;27;20023;-46
2021/12/09 14:42:47;;;;;;;6.15;2.33;;;;;;;;;;5123695;27;20023;-41
2021/12/09 14:45:12;;;;;;;2.13;1.52;;;;;;;;;;5125727;27;20435;-42
2021/12/09 14:47:37;;;;;;;3.15;1.02;;;;;;;;;;5118915;27;20019;-40
2021/12/09 14:50:05;;;;;;;4.57;1.27;;;;;;;;;;5116585;27;20624;-40
2021/12/09 14:52:33;;;;;;;6.38;1.70;;;;;;;;;;5104689;27;20041;-40
2021/12/09 14:55:19;;;;;;;9.50;1.45;;;;;;;;;;5116916;27;20015;-42
2021/12/09 14:58:04;;;;;;;16.90;2.83;;;;;;;;;;5118884;27;20062;-43
2021/12/09 15:00:29;;;;;;;7.30;2.47;;;;;;;;;;5119301;27;20060;-42
2021/12/09 15:02:55;;;;;;;4.85;2.55;;;;;;;;;;5115974;27;20027;-43
2021/12/09 15:05:21;;;;;;;4.25;2.53;;;;;;;;;;5118939;27;20551;-41
2021/12/09 15:07:51;;;;;;;3.55;2.08;;;;;;;;;;5115461;27;20555;-39
2021/12/09 15:10:18;;;;;;;5.78;1.52;;;;;;;;;;5115917;27;20015;-42
2021/12/09 15:12:44;;;;;;;4.05;1.65;;;;;;;;;;5115289;27;20088;-39
2021/12/09 15:15:25;;;;;;;3.72;2.67;;;;;;;;;;5119427;27;20019;-44
2021/12/09 15:17:53;;;;;;;2.83;1.17;;;;;;;;;;5117790;27;20051;-41
2021/12/09 15:20:19;;;;;;;3.92;1.98;;;;;;;;;;5113898;27;20047;-44
2021/12/09 15:22:55;;;;;;;4.93;2.47;;;;;;;;;;5117626;27;20480;-41
2021/12/09 15:25:20;;;;;;;0.93;0.40;;;;;;;;;;5117608;27;20019;-45
2021/12/09 15:27:49;;;;;;;2.63;1.58;;;;;;;;;;5122077;27;20023;-44
2021/12/09 15:30:14;;;;;;;4.47;2.03;;;;;;;;;;5117094;27;20019;-40
2021/12/09 15:32:56;;;;;;;0.70;0.30;;;;;;;;;;5113415;27;20080;-41
2021/12/09 15:35:22;;;;;;;2.53;1.48;;;;;;;;;;5114679;27;20011;-44
2021/12/09 15:37:47;;;;;;;3.90;2.35;;;;;;;;;;5115805;27;20064;-40